sensor_id;sensor_type;location;lat;lon;timestamp;pressure;altitude;pressure_sealevel;temperature;humidity
34482;BME280;20720;48.886;9.388;2022-08-21T00:01:01;98495.38;;;16.67;100.00
34482;BME280;20720;48.886;9.388;2022-08-21T00:03:28;98527.78;;;16.46;100.00
34482;BME280;20720;48.886;9.388;2022-08-21T00:05:53;98523.25;;;16.81;100.00
34482;BME280;20720;48.886;9.388;2022-08-21T00:08:19;98489.91;;;16.85;100.00
34482;BME280;20720;48.886;9.388;2022-08-21T00:10:44;98465.25;;;16.73;100.00
34482;BME280;20720;48.886;9.388;2022-08-21T00:13:10;98445.66;;;16.62;100.00
34482;BME280;20720;48.886;9.388;2022-08-21T00:15:36;98471.06;;;16.24;100.00
34482;BME280;20720;48.886;9.388;2022-08-21T00:18:02;98466.09;;;16.50;100.00
34482;BME280;20720;48.886;9.388;2022-08-21T00:20:28;98445.56;;;16.57;100.00
34482;BME280;20720;48.886;9.388;2022-08-21T00:22:53;98412.25;;;16.50;100.00
34482;BME280;20720;48.886;9.388;2022-08-21T00:25:19;98435.56;;;16.25;100.00
34482;BME280;20720;48.886;9.388;2022-08-21T00:27:44;98427.91;;;16.40;100.00
34482;BME280;20720;48.886;9.388;2022-08-21T00:30:11;98410.75;;;16.42;100.00
34482;BME280;20720;48.886;9.388;2022-08-21T00:32:38;98440.84;;;16.01;100.00
34482;BME280;20720;48.886;9.388;2022-08-21T00:35:07;98467.84;;;16.10;100.00
34482;BME280;20720;48.886;9.388;2022-08-21T00:37:33;98467.47;;;16.18;100.00
34482;BME280;20720;48.886;9.388;2022-08-21T00:39:58;98470.59;;;16.03;100.00
34482;BME280;20720;48.886;9.388;2022-08-21T00:42:23;98498.69;;;15.81;100.00
34482;BME280;20720;48.886;9.388;2022-08-21T00:44:48;98515.06;;;16.01;100.00
34482;BME280;20720;48.886;9.388;2022-08-21T00:47:14;98523.16;;;16.07;100.00
34482;BME280;20720;48.886;9.388;2022-08-21T00:49:40;98527.09;;;16.16;100.00
34482;BME280;20720;48.886;9.388;2022-08-21T00:52:06;98539.41;;;15.98;100.00
34482;BME280;20720;48.886;9.388;2022-08-21T00:54:31;98536.88;;;16.15;100.00
34482;BME280;20720;48.886;9.388;2022-08-21T00:56:58;98545.38;;;15.94;100.00
34482;BME280;20720;48.886;9.388;2022-08-21T00:59:25;98552.19;;;16.01;100.00
34482;BME280;20720;48.886;9.388;2022-08-21T01:01:50;98568.28;;;15.88;100.00
34482;BME280;20720;48.886;9.388;2022-08-21T01:04:17;98574.13;;;15.79;100.00
34482;BME280;20720;48.886;9.388;2022-08-21T01:06:42;98597.16;;;15.78;100.00
34482;BME280;20720;48.886;9.388;2022-08-21T01:09:09;98591.13;;;15.89;100.00
34482;BME280;20720;48.886;9.388;2022-08-21T01:11:35;98558.28;;;16.02;100.00
34482;BME280;20720;48.886;9.388;2022-08-21T01:14:00;98492.28;;;16.00;100.00
34482;BME280;20720;48.886;9.388;2022-08-21T01:16:26;98449.72;;;15.95;100.00
34482;BME280;20720;48.886;9.388;2022-08-21T01:18:51;98432.13;;;15.89;100.00
34482;BME280;20720;48.886;9.388;2022-08-21T01:23:44;98403.22;;;15.76;100.00
34482;BME280;20720;48.886;9.388;2022-08-21T01:26:10;98401.00;;;15.62;100.00
34482;BME280;20720;48.886;9.388;2022-08-21T01:28:40;98422.28;;;15.55;100.00
34482;BME280;20720;48.886;9.388;2022-08-21T01:31:07;98429.44;;;15.55;100.00
34482;BME280;20720;48.886;9.388;2022-08-21T01:33:33;98431.84;;;15.56;100.00
34482;BME280;20720;48.886;9.388;2022-08-21T01:35:58;98422.97;;;15.51;100.00
34482;BME280;20720;48.886;9.388;2022-08-21T01:38:23;98432.22;;;15.30;100.00
34482;BME280;20720;48.886;9.388;2022-08-21T01:40:49;98471.81;;;15.25;100.00
34482;BME280;20720;48.886;9.388;2022-08-21T01:43:14;98511.03;;;15.46;100.00
34482;BME280;20720;48.886;9.388;2022-08-21T01:45:39;98522.22;;;15.30;100.00
34482;BME280;20720;48.886;9.388;2022-08-21T01:48:05;98511.19;;;15.51;100.00
34482;BME280;20720;48.886;9.388;2022-08-21T01:50:30;98468.09;;;15.56;100.00
34482;BME280;20720;48.886;9.388;2022-08-21T01:52:56;98427.44;;;15.50;100.00
34482;BME280;20720;48.886;9.388;2022-08-21T01:55:21;98418.94;;;15.48;100.00
34482;BME280;20720;48.886;9.388;2022-08-21T01:57:46;98407.19;;;15.44;100.00
34482;BME280;20720;48.886;9.388;2022-08-21T02:00:13;98393.09;;;15.32;100.00
34482;BME280;20720;48.886;9.388;2022-08-21T02:02:39;98380.28;;;15.29;100.00
34482;BME280;20720;48.886;9.388;2022-08-21T02:05:06;98373.63;;;15.27;100.00
34482;BME280;20720;48.886;9.388;2022-08-21T02:07:35;98349.88;;;15.08;100.00
34482;BME280;20720;48.886;9.388;2022-08-21T02:10:00;98376.69;;;15.00;100.00
34482;BME280;20720;48.886;9.388;2022-08-21T02:12:26;98409.00;;;14.73;100.00
34482;BME280;20720;48.886;9.388;2022-08-21T02:14:51;98448.09;;;14.53;100.00
34482;BME280;20720;48.886;9.388;2022-08-21T02:17:16;98501.22;;;14.51;100.00
34482;BME280;20720;48.886;9.388;2022-08-21T02:19:41;98537.72;;;14.61;100.00
34482;BME280;20720;48.886;9.388;2022-08-21T02:22:08;98548.50;;;14.95;100.00
34482;BME280;20720;48.886;9.388;2022-08-21T02:24:33;98491.34;;;14.94;100.00
34482;BME280;20720;48.886;9.388;2022-08-21T02:26:58;98491.72;;;14.98;100.00
34482;BME280;20720;48.886;9.388;2022-08-21T02:29:23;98509.06;;;14.76;100.00
34482;BME280;20720;48.886;9.388;2022-08-21T02:31:48;98540.22;;;14.92;100.00
34482;BME280;20720;48.886;9.388;2022-08-21T02:34:13;98539.19;;;14.93;100.00
34482;BME280;20720;48.886;9.388;2022-08-21T02:36:39;98543.16;;;14.84;100.00
34482;BME280;20720;48.886;9.388;2022-08-21T02:39:04;98546.03;;;14.82;100.00
34482;BME280;20720;48.886;9.388;2022-08-21T02:41:29;98557.56;;;15.06;100.00
34482;BME280;20720;48.886;9.388;2022-08-21T02:43:54;98551.09;;;15.02;100.00
34482;BME280;20720;48.886;9.388;2022-08-21T02:46:20;98548.28;;;14.97;100.00
34482;BME280;20720;48.886;9.388;2022-08-21T02:48:46;98561.53;;;14.79;100.00
34482;BME280;20720;48.886;9.388;2022-08-21T02:51:12;98558.44;;;15.00;100.00
34482;BME280;20720;48.886;9.388;2022-08-21T02:53:38;98526.09;;;14.98;100.00
34482;BME280;20720;48.886;9.388;2022-08-21T02:56:04;98504.06;;;15.04;100.00
34482;BME280;20720;48.886;9.388;2022-08-21T02:58:31;98472.72;;;15.01;100.00
34482;BME280;20720;48.886;9.388;2022-08-21T03:00:57;98480.94;;;15.11;100.00
34482;BME280;20720;48.886;9.388;2022-08-21T03:03:23;98495.81;;;14.94;100.00
34482;BME280;20720;48.886;9.388;2022-08-21T03:05:49;98497.19;;;15.15;100.00
34482;BME280;20720;48.886;9.388;2022-08-21T03:08:15;98472.53;;;15.14;100.00
34482;BME280;20720;48.886;9.388;2022-08-21T03:10:42;98424.66;;;15.04;100.00
34482;BME280;20720;48.886;9.388;2022-08-21T03:13:08;98401.16;;;14.96;100.00
34482;BME280;20720;48.886;9.388;2022-08-21T03:15:34;98400.16;;;14.79;100.00
34482;BME280;20720;48.886;9.388;2022-08-21T03:17:59;98406.88;;;14.81;100.00
34482;BME280;20720;48.886;9.388;2022-08-21T03:20:25;98404.16;;;14.70;100.00
34482;BME280;20720;48.886;9.388;2022-08-21T03:22:51;98394.41;;;14.70;100.00
34482;BME280;20720;48.886;9.388;2022-08-21T03:25:16;98400.41;;;14.77;100.00
34482;BME280;20720;48.886;9.388;2022-08-21T03:27:42;98382.66;;;14.66;100.00
34482;BME280;20720;48.886;9.388;2022-08-21T03:30:08;98390.78;;;14.65;100.00
34482;BME280;20720;48.886;9.388;2022-08-21T03:32:34;98388.94;;;14.65;100.00
34482;BME280;20720;48.886;9.388;2022-08-21T03:35:01;98396.66;;;14.67;100.00
34482;BME280;20720;48.886;9.388;2022-08-21T03:37:27;98384.78;;;14.58;100.00
34482;BME280;20720;48.886;9.388;2022-08-21T03:39:52;98375.09;;;14.52;100.00
34482;BME280;20720;48.886;9.388;2022-08-21T03:42:17;98370.13;;;14.44;100.00
34482;BME280;20720;48.886;9.388;2022-08-21T03:44:43;98367.91;;;14.41;100.00
34482;BME280;20720;48.886;9.388;2022-08-21T03:47:08;98400.44;;;14.41;100.00
34482;BME280;20720;48.886;9.388;2022-08-21T03:49:34;98429.97;;;14.38;100.00
34482;BME280;20720;48.886;9.388;2022-08-21T03:52:00;98436.06;;;14.39;100.00
34482;BME280;20720;48.886;9.388;2022-08-21T03:54:25;98420.50;;;14.31;100.00
34482;BME280;20720;48.886;9.388;2022-08-21T03:56:50;98426.56;;;14.31;100.00
34482;BME280;20720;48.886;9.388;2022-08-21T03:59:16;98440.75;;;14.37;100.00
34482;BME280;20720;48.886;9.388;2022-08-21T04:01:51;98442.28;;;14.26;100.00
34482;BME280;20720;48.886;9.388;2022-08-21T04:04:16;98424.38;;;14.28;100.00
34482;BME280;20720;48.886;9.388;2022-08-21T04:06:41;98414.81;;;14.27;100.00
34482;BME280;20720;48.886;9.388;2022-08-21T04:09:07;98417.31;;;14.04;100.00
34482;BME280;20720;48.886;9.388;2022-08-21T04:11:32;98443.91;;;14.02;100.00
34482;BME280;20720;48.886;9.388;2022-08-21T04:13:57;98457.31;;;14.07;100.00
34482;BME280;20720;48.886;9.388;2022-08-21T04:16:22;98451.69;;;13.97;100.00
34482;BME280;20720;48.886;9.388;2022-08-21T04:18:47;98455.63;;;14.13;100.00
34482;BME280;20720;48.886;9.388;2022-08-21T04:21:12;98452.88;;;14.01;100.00
34482;BME280;20720;48.886;9.388;2022-08-21T04:23:38;98431.66;;;14.08;100.00
34482;BME280;20720;48.886;9.388;2022-08-21T04:26:03;98445.88;;;14.13;100.00
34482;BME280;20720;48.886;9.388;2022-08-21T04:28:28;98454.81;;;14.12;100.00
34482;BME280;20720;48.886;9.388;2022-08-21T04:30:54;98459.72;;;14.09;100.00
34482;BME280;20720;48.886;9.388;2022-08-21T04:33:20;98441.88;;;14.04;100.00
34482;BME280;20720;48.886;9.388;2022-08-21T04:35:45;98439.16;;;14.11;100.00
34482;BME280;20720;48.886;9.388;2022-08-21T04:38:11;98449.50;;;14.12;100.00
34482;BME280;20720;48.886;9.388;2022-08-21T04:40:36;98451.50;;;14.17;100.00
34482;BME280;20720;48.886;9.388;2022-08-21T04:43:03;98437.34;;;14.11;100.00
34482;BME280;20720;48.886;9.388;2022-08-21T04:45:30;98433.97;;;14.23;100.00
34482;BME280;20720;48.886;9.388;2022-08-21T04:47:57;98421.34;;;14.25;100.00
34482;BME280;20720;48.886;9.388;2022-08-21T04:50:24;98405.50;;;14.25;100.00
34482;BME280;20720;48.886;9.388;2022-08-21T04:52:52;98403.84;;;14.30;100.00
34482;BME280;20720;48.886;9.388;2022-08-21T04:55:17;98403.31;;;14.40;100.00
34482;BME280;20720;48.886;9.388;2022-08-21T04:57:43;98381.72;;;14.43;100.00
34482;BME280;20720;48.886;9.388;2022-08-21T05:00:09;98377.16;;;14.50;100.00
34482;BME280;20720;48.886;9.388;2022-08-21T05:02:35;98365.78;;;14.49;100.00
34482;BME280;20720;48.886;9.388;2022-08-21T05:05:01;98364.44;;;14.58;100.00
34482;BME280;20720;48.886;9.388;2022-08-21T05:07:28;98358.16;;;14.71;100.00
34482;BME280;20720;48.886;9.388;2022-08-21T05:09:54;98357.28;;;14.77;100.00
34482;BME280;20720;48.886;9.388;2022-08-21T05:12:20;98352.84;;;14.89;100.00
34482;BME280;20720;48.886;9.388;2022-08-21T05:14:46;98339.13;;;14.92;100.00
34482;BME280;20720;48.886;9.388;2022-08-21T05:17:12;98328.81;;;15.02;100.00
34482;BME280;20720;48.886;9.388;2022-08-21T05:19:37;98321.38;;;15.22;100.00
34482;BME280;20720;48.886;9.388;2022-08-21T05:22:02;98292.72;;;15.31;100.00
34482;BME280;20720;48.886;9.388;2022-08-21T05:24:27;98289.06;;;15.43;100.00
34482;BME280;20720;48.886;9.388;2022-08-21T05:26:53;98271.78;;;15.52;100.00
34482;BME280;20720;48.886;9.388;2022-08-21T05:29:18;98263.16;;;15.57;100.00
34482;BME280;20720;48.886;9.388;2022-08-21T05:31:44;98273.84;;;15.73;100.00
34482;BME280;20720;48.886;9.388;2022-08-21T05:34:10;98261.72;;;15.89;100.00
34482;BME280;20720;48.886;9.388;2022-08-21T05:36:35;98232.97;;;16.09;100.00
34482;BME280;20720;48.886;9.388;2022-08-21T05:39:00;98229.44;;;16.20;100.00
34482;BME280;20720;48.886;9.388;2022-08-21T05:41:25;98216.72;;;16.34;100.00
34482;BME280;20720;48.886;9.388;2022-08-21T05:43:51;98214.00;;;16.45;100.00
34482;BME280;20720;48.886;9.388;2022-08-21T05:46:16;98213.59;;;16.65;100.00
34482;BME280;20720;48.886;9.388;2022-08-21T05:48:41;98198.94;;;16.79;100.00
34482;BME280;20720;48.886;9.388;2022-08-21T05:51:14;98198.59;;;16.92;100.00
34482;BME280;20720;48.886;9.388;2022-08-21T05:53:40;98215.66;;;17.13;100.00
34482;BME280;20720;48.886;9.388;2022-08-21T05:56:07;98214.25;;;17.27;100.00
34482;BME280;20720;48.886;9.388;2022-08-21T05:58:32;98216.41;;;17.46;100.00
34482;BME280;20720;48.886;9.388;2022-08-21T06:00:58;98226.69;;;17.59;100.00
34482;BME280;20720;48.886;9.388;2022-08-21T06:03:25;98232.69;;;17.71;100.00
34482;BME280;20720;48.886;9.388;2022-08-21T06:05:51;98237.81;;;17.56;100.00
34482;BME280;20720;48.886;9.388;2022-08-21T06:08:18;98227.44;;;17.98;100.00
34482;BME280;20720;48.886;9.388;2022-08-21T06:10:44;98241.53;;;18.20;100.00
34482;BME280;20720;48.886;9.388;2022-08-21T06:13:10;98247.38;;;18.44;100.00
34482;BME280;20720;48.886;9.388;2022-08-21T06:15:35;98253.28;;;18.51;100.00
34482;BME280;20720;48.886;9.388;2022-08-21T06:18:01;98257.75;;;18.72;100.00
34482;BME280;20720;48.886;9.388;2022-08-21T06:20:26;98252.56;;;18.87;100.00
34482;BME280;20720;48.886;9.388;2022-08-21T06:22:51;98261.78;;;19.06;100.00
34482;BME280;20720;48.886;9.388;2022-08-21T06:25:17;98260.38;;;19.30;100.00
34482;BME280;20720;48.886;9.388;2022-08-21T06:27:43;98280.56;;;18.63;100.00
34482;BME280;20720;48.886;9.388;2022-08-21T06:30:08;98283.91;;;18.75;100.00
34482;BME280;20720;48.886;9.388;2022-08-21T06:32:34;98276.53;;;19.55;100.00
34482;BME280;20720;48.886;9.388;2022-08-21T06:34:59;98270.06;;;19.93;100.00
34482;BME280;20720;48.886;9.388;2022-08-21T06:37:24;98280.78;;;20.03;100.00
34482;BME280;20720;48.886;9.388;2022-08-21T06:39:50;98283.56;;;20.18;100.00
34482;BME280;20720;48.886;9.388;2022-08-21T06:42:16;98298.31;;;20.46;100.00
34482;BME280;20720;48.886;9.388;2022-08-21T06:44:42;98313.84;;;20.64;100.00
34482;BME280;20720;48.886;9.388;2022-08-21T06:47:07;98319.22;;;20.84;100.00
34482;BME280;20720;48.886;9.388;2022-08-21T06:49:32;98336.16;;;19.44;100.00
34482;BME280;20720;48.886;9.388;2022-08-21T06:51:57;98328.47;;;20.46;100.00
34482;BME280;20720;48.886;9.388;2022-08-21T06:54:22;98332.00;;;20.62;100.00
34482;BME280;20720;48.886;9.388;2022-08-21T06:56:47;98328.84;;;20.85;100.00
34482;BME280;20720;48.886;9.388;2022-08-21T06:59:12;98333.19;;;21.26;100.00
34482;BME280;20720;48.886;9.388;2022-08-21T07:01:38;98345.47;;;21.88;100.00
34482;BME280;20720;48.886;9.388;2022-08-21T07:04:04;98365.25;;;21.62;100.00
34482;BME280;20720;48.886;9.388;2022-08-21T07:06:29;98373.25;;;22.02;100.00
34482;BME280;20720;48.886;9.388;2022-08-21T07:08:54;98375.31;;;22.30;100.00
34482;BME280;20720;48.886;9.388;2022-08-21T07:11:20;98381.28;;;21.06;100.00
34482;BME280;20720;48.886;9.388;2022-08-21T07:13:46;98380.19;;;22.18;100.00
34482;BME280;20720;48.886;9.388;2022-08-21T07:16:11;98385.59;;;22.77;100.00
34482;BME280;20720;48.886;9.388;2022-08-21T07:18:36;98416.66;;;23.26;100.00
34482;BME280;20720;48.886;9.388;2022-08-21T07:21:03;98439.69;;;23.38;100.00
34482;BME280;20720;48.886;9.388;2022-08-21T07:23:29;98456.84;;;23.37;100.00
34482;BME280;20720;48.886;9.388;2022-08-21T07:25:55;98462.69;;;23.82;98.87
34482;BME280;20720;48.886;9.388;2022-08-21T07:28:20;98462.84;;;22.50;100.00
34482;BME280;20720;48.886;9.388;2022-08-21T07:33:11;98462.13;;;23.52;100.00
34482;BME280;20720;48.886;9.388;2022-08-21T07:35:36;98460.03;;;22.90;100.00
34482;BME280;20720;48.886;9.388;2022-08-21T07:38:01;98456.28;;;24.12;100.00
34482;BME280;20720;48.886;9.388;2022-08-21T07:40:26;98461.13;;;24.62;96.73
34482;BME280;20720;48.886;9.388;2022-08-21T07:42:52;98463.50;;;24.45;96.81
34482;BME280;20720;48.886;9.388;2022-08-21T07:45:20;98463.00;;;25.28;91.46
34482;BME280;20720;48.886;9.388;2022-08-21T07:47:46;98469.41;;;25.32;91.35
34482;BME280;20720;48.886;9.388;2022-08-21T07:50:11;98471.56;;;24.92;89.88
34482;BME280;20720;48.886;9.388;2022-08-21T07:52:37;98474.19;;;25.58;92.43
34482;BME280;20720;48.886;9.388;2022-08-21T07:55:03;98477.63;;;26.28;84.25
34482;BME280;20720;48.886;9.388;2022-08-21T07:57:28;98477.63;;;24.27;92.20
34482;BME280;20720;48.886;9.388;2022-08-21T07:59:53;98478.78;;;25.90;90.21
34482;BME280;20720;48.886;9.388;2022-08-21T08:02:25;98482.41;;;26.31;85.83
34482;BME280;20720;48.886;9.388;2022-08-21T08:04:51;98486.69;;;26.78;80.86
34482;BME280;20720;48.886;9.388;2022-08-21T08:07:16;98485.00;;;27.45;80.24
34482;BME280;20720;48.886;9.388;2022-08-21T08:09:42;98484.28;;;26.90;78.42
34482;BME280;20720;48.886;9.388;2022-08-21T08:12:08;98479.34;;;26.38;83.01
34482;BME280;20720;48.886;9.388;2022-08-21T08:14:33;98475.81;;;28.34;75.56
34482;BME280;20720;48.886;9.388;2022-08-21T08:16:58;98481.41;;;28.68;70.65
34482;BME280;20720;48.886;9.388;2022-08-21T08:19:23;98485.47;;;28.27;68.70
34482;BME280;20720;48.886;9.388;2022-08-21T08:21:49;98482.81;;;28.66;66.71
34482;BME280;20720;48.886;9.388;2022-08-21T08:24:14;98485.31;;;29.02;66.48
34482;BME280;20720;48.886;9.388;2022-08-21T08:26:39;98483.19;;;29.55;64.24
34482;BME280;20720;48.886;9.388;2022-08-21T08:29:04;98484.97;;;29.59;64.47
34482;BME280;20720;48.886;9.388;2022-08-21T08:31:29;98483.88;;;29.86;64.06
34482;BME280;20720;48.886;9.388;2022-08-21T08:33:55;98470.16;;;30.00;62.43
34482;BME280;20720;48.886;9.388;2022-08-21T08:36:20;98470.28;;;29.26;61.82
34482;BME280;20720;48.886;9.388;2022-08-21T08:38:55;98478.88;;;29.20;67.19
34482;BME280;20720;48.886;9.388;2022-08-21T08:41:20;98472.63;;;30.30;61.40
34482;BME280;20720;48.886;9.388;2022-08-21T08:43:54;98476.44;;;30.46;59.18
34482;BME280;20720;48.886;9.388;2022-08-21T08:46:22;98476.09;;;26.81;67.88
34482;BME280;20720;48.886;9.388;2022-08-21T08:48:52;98468.06;;;28.72;67.31
34482;BME280;20720;48.886;9.388;2022-08-21T08:51:22;98468.66;;;30.19;59.27
34482;BME280;20720;48.886;9.388;2022-08-21T08:56:14;98474.97;;;31.16;57.32
34482;BME280;20720;48.886;9.388;2022-08-21T08:58:40;98470.00;;;29.88;59.09
34482;BME280;20720;48.886;9.388;2022-08-21T09:01:11;98469.69;;;28.90;66.09
34482;BME280;20720;48.886;9.388;2022-08-21T09:03:39;98470.16;;;29.74;65.89
34482;BME280;20720;48.886;9.388;2022-08-21T09:06:15;98469.56;;;28.95;61.48
34482;BME280;20720;48.886;9.388;2022-08-21T09:08:50;98466.22;;;31.39;57.51
34482;BME280;20720;48.886;9.388;2022-08-21T09:16:34;98458.53;;;31.62;54.31
34482;BME280;20720;48.886;9.388;2022-08-21T09:21:49;98454.44;;;32.21;51.18
34482;BME280;20720;48.886;9.388;2022-08-21T09:26:48;98454.78;;;31.67;51.11
34482;BME280;20720;48.886;9.388;2022-08-21T09:29:17;98442.97;;;32.85;47.81
34482;BME280;20720;48.886;9.388;2022-08-21T09:31:45;98442.25;;;29.56;53.21
34482;BME280;20720;48.886;9.388;2022-08-21T09:34:11;98442.19;;;31.83;50.58
34482;BME280;20720;48.886;9.388;2022-08-21T09:39:08;98448.63;;;32.68;48.78
34482;BME280;20720;48.886;9.388;2022-08-21T09:41:34;98448.06;;;33.62;44.96
34482;BME280;20720;48.886;9.388;2022-08-21T09:44:02;98443.03;;;33.76;44.64
34482;BME280;20720;48.886;9.388;2022-08-21T09:46:27;98439.47;;;30.16;54.75
34482;BME280;20720;48.886;9.388;2022-08-21T09:48:54;98439.19;;;30.55;54.72
34482;BME280;20720;48.886;9.388;2022-08-21T09:51:21;98441.81;;;32.62;48.78
34482;BME280;20720;48.886;9.388;2022-08-21T09:53:55;98436.06;;;33.79;45.84
34482;BME280;20720;48.886;9.388;2022-08-21T09:56:29;98438.31;;;28.80;57.98
34482;BME280;20720;48.886;9.388;2022-08-21T09:59:14;98441.81;;;31.93;51.19
34482;BME280;20720;48.886;9.388;2022-08-21T10:01:44;98433.34;;;31.53;52.61
34482;BME280;20720;48.886;9.388;2022-08-21T10:04:10;98431.34;;;31.21;50.63
34482;BME280;20720;48.886;9.388;2022-08-21T10:06:36;98436.50;;;31.14;49.17
34482;BME280;20720;48.886;9.388;2022-08-21T10:09:09;98429.88;;;33.66;44.83
34482;BME280;20720;48.886;9.388;2022-08-21T10:11:35;98432.28;;;31.66;45.90
34482;BME280;20720;48.886;9.388;2022-08-21T10:14:06;98422.97;;;31.67;44.56
34482;BME280;20720;48.886;9.388;2022-08-21T10:16:44;98422.47;;;32.18;40.18
34482;BME280;20720;48.886;9.388;2022-08-21T10:19:16;98414.13;;;32.84;41.88
34482;BME280;20720;48.886;9.388;2022-08-21T10:24:30;98412.28;;;34.07;40.07
34482;BME280;20720;48.886;9.388;2022-08-21T10:27:02;98408.41;;;32.16;43.18
34482;BME280;20720;48.886;9.388;2022-08-21T10:31:59;98411.06;;;34.04;40.56
34482;BME280;20720;48.886;9.388;2022-08-21T10:34:36;98404.09;;;33.64;40.40
34482;BME280;20720;48.886;9.388;2022-08-21T10:39:35;98404.47;;;35.18;36.88
34482;BME280;20720;48.886;9.388;2022-08-21T10:42:22;98399.88;;;35.60;35.55
34482;BME280;20720;48.886;9.388;2022-08-21T10:48:04;98395.13;;;35.96;34.97
34482;BME280;20720;48.886;9.388;2022-08-21T10:50:16;98395.03;;;37.12;31.66
34482;BME280;20720;48.886;9.388;2022-08-21T10:52:52;98394.00;;;36.23;32.43
34482;BME280;20720;48.886;9.388;2022-08-21T10:55:21;98389.66;;;33.63;34.56
34482;BME280;20720;48.886;9.388;2022-08-21T10:58:01;98389.16;;;32.94;37.58
34482;BME280;20720;48.886;9.388;2022-08-21T11:00:33;98385.81;;;34.23;36.25
34482;BME280;20720;48.886;9.388;2022-08-21T11:05:30;98383.03;;;36.42;33.39
34482;BME280;20720;48.886;9.388;2022-08-21T11:08:03;98380.50;;;33.16;37.16
34482;BME280;20720;48.886;9.388;2022-08-21T11:10:44;98380.38;;;34.89;34.86
34482;BME280;20720;48.886;9.388;2022-08-21T11:13:12;98381.44;;;35.76;35.56
34482;BME280;20720;48.886;9.388;2022-08-21T11:15:43;98373.81;;;35.66;36.18
34482;BME280;20720;48.886;9.388;2022-08-21T11:18:32;98370.63;;;35.83;34.86
34482;BME280;20720;48.886;9.388;2022-08-21T11:26:13;98373.41;;;34.91;34.61
34482;BME280;20720;48.886;9.388;2022-08-21T11:28:43;98365.88;;;36.71;33.51
34482;BME280;20720;48.886;9.388;2022-08-21T11:33:57;98365.56;;;30.95;38.79
34482;BME280;20720;48.886;9.388;2022-08-21T11:39:09;98359.94;;;31.20;40.16
34482;BME280;20720;48.886;9.388;2022-08-21T11:41:39;98355.78;;;31.56;41.20
34482;BME280;20720;48.886;9.388;2022-08-21T11:51:48;98346.34;;;36.24;33.46
34482;BME280;20720;48.886;9.388;2022-08-21T11:54:26;98347.50;;;35.01;34.83
34482;BME280;20720;48.886;9.388;2022-08-21T11:57:04;98337.47;;;32.33;37.28
34482;BME280;20720;48.886;9.388;2022-08-21T11:59:39;98338.63;;;32.32;38.69
34482;BME280;20720;48.886;9.388;2022-08-21T12:02:10;98335.09;;;34.88;34.66
34482;BME280;20720;48.886;9.388;2022-08-21T12:04:42;98335.72;;;34.47;36.03
34482;BME280;20720;48.886;9.388;2022-08-21T12:07:12;98339.53;;;35.91;33.36
34482;BME280;20720;48.886;9.388;2022-08-21T12:09:38;98332.38;;;36.32;32.99
34482;BME280;20720;48.886;9.388;2022-08-21T12:12:10;98331.53;;;36.51;32.82
34482;BME280;20720;48.886;9.388;2022-08-21T12:14:46;98338.66;;;36.33;32.44
34482;BME280;20720;48.886;9.388;2022-08-21T12:17:22;98334.31;;;36.54;32.51
34482;BME280;20720;48.886;9.388;2022-08-21T12:19:58;98339.59;;;37.59;31.57
34482;BME280;20720;48.886;9.388;2022-08-21T12:22:30;98339.00;;;36.54;30.86
34482;BME280;20720;48.886;9.388;2022-08-21T12:25:10;98337.13;;;37.17;30.29
34482;BME280;20720;48.886;9.388;2022-08-21T12:27:46;98333.25;;;35.49;31.66
34482;BME280;20720;48.886;9.388;2022-08-21T12:32:55;98326.69;;;36.41;29.96
34482;BME280;20720;48.886;9.388;2022-08-21T12:35:23;98319.31;;;37.01;30.79
34482;BME280;20720;48.886;9.388;2022-08-21T12:40:25;98314.44;;;36.87;29.02
34482;BME280;20720;48.886;9.388;2022-08-21T12:42:53;98314.78;;;36.56;29.83
34482;BME280;20720;48.886;9.388;2022-08-21T12:47:49;98302.84;;;36.41;29.54
34482;BME280;20720;48.886;9.388;2022-08-21T12:50:17;98303.75;;;34.82;31.26
34482;BME280;20720;48.886;9.388;2022-08-21T12:52:46;98300.31;;;37.51;28.34
34482;BME280;20720;48.886;9.388;2022-08-21T12:55:15;98301.44;;;38.85;26.81
34482;BME280;20720;48.886;9.388;2022-08-21T12:57:41;98300.34;;;36.10;28.72
34482;BME280;20720;48.886;9.388;2022-08-21T13:00:08;98299.63;;;35.90;29.03
34482;BME280;20720;48.886;9.388;2022-08-21T13:02:42;98294.53;;;36.64;28.95
34482;BME280;20720;48.886;9.388;2022-08-21T13:05:11;98287.97;;;34.75;29.55
34482;BME280;20720;48.886;9.388;2022-08-21T13:07:37;98296.66;;;35.16;29.38
34482;BME280;20720;48.886;9.388;2022-08-21T13:10:07;98284.38;;;33.31;31.56
34482;BME280;20720;48.886;9.388;2022-08-21T13:12:38;98294.31;;;33.51;30.53
34482;BME280;20720;48.886;9.388;2022-08-21T13:15:06;98294.16;;;36.65;26.94
34482;BME280;20720;48.886;9.388;2022-08-21T13:17:32;98293.69;;;35.43;25.71
34482;BME280;20720;48.886;9.388;2022-08-21T13:20:00;98295.38;;;35.70;25.74
34482;BME280;20720;48.886;9.388;2022-08-21T13:22:27;98294.19;;;36.95;25.51
34482;BME280;20720;48.886;9.388;2022-08-21T13:24:52;98292.97;;;35.46;25.60
34482;BME280;20720;48.886;9.388;2022-08-21T13:27:25;98298.31;;;36.04;25.69
34482;BME280;20720;48.886;9.388;2022-08-21T13:30:08;98286.00;;;36.69;25.11
34482;BME280;20720;48.886;9.388;2022-08-21T13:32:35;98287.28;;;33.50;26.17
34482;BME280;20720;48.886;9.388;2022-08-21T13:35:16;98276.63;;;36.18;24.48
34482;BME280;20720;48.886;9.388;2022-08-21T13:37:42;98282.84;;;36.15;24.35
34482;BME280;20720;48.886;9.388;2022-08-21T13:40:15;98284.63;;;36.30;24.27
34482;BME280;20720;48.886;9.388;2022-08-21T13:42:41;98276.59;;;37.69;22.67
34482;BME280;20720;48.886;9.388;2022-08-21T13:45:12;98275.91;;;37.36;22.29
34482;BME280;20720;48.886;9.388;2022-08-21T13:47:38;98273.56;;;36.23;24.93
34482;BME280;20720;48.886;9.388;2022-08-21T13:50:03;98273.69;;;37.15;24.06
34482;BME280;20720;48.886;9.388;2022-08-21T13:52:28;98271.66;;;37.86;24.39
34482;BME280;20720;48.886;9.388;2022-08-21T13:54:55;98265.38;;;39.04;22.77